sensor_id;sensor_type;location;lat;lon;timestamp;temperature;humidity
8945;DHT22;4507;40.232;29.132;2023-07-31T00:02:05;21.30;78.80
8945;DHT22;4507;40.232;29.132;2023-07-31T00:04:34;21.30;79.00
8945;DHT22;4507;40.232;29.132;2023-07-31T00:07:12;21.30;79.60
8945;DHT22;4507;40.232;29.132;2023-07-31T00:09:41;21.30;79.30
8945;DHT22;4507;40.232;29.132;2023-07-31T00:12:10;21.20;79.30
8945;DHT22;4507;40.232;29.132;2023-07-31T00:14:41;21.20;79.30
8945;DHT22;4507;40.232;29.132;2023-07-31T00:17:10;21.20;79.20
8945;DHT22;4507;40.232;29.132;2023-07-31T00:19:42;21.10;78.90
8945;DHT22;4507;40.232;29.132;2023-07-31T00:22:14;21.10;78.90
8945;DHT22;4507;40.232;29.132;2023-07-31T00:24:50;21.00;79.00
8945;DHT22;4507;40.232;29.132;2023-07-31T00:27:19;21.00;79.20
8945;DHT22;4507;40.232;29.132;2023-07-31T00:33:35;20.80;79.60
8945;DHT22;4507;40.232;29.132;2023-07-31T00:36:04;20.80;80.60
8945;DHT22;4507;40.232;29.132;2023-07-31T00:38:34;20.70;81.00
8945;DHT22;4507;40.232;29.132;2023-07-31T00:41:03;20.70;80.70
8945;DHT22;4507;40.232;29.132;2023-07-31T00:43:32;20.60;81.10
8945;DHT22;4507;40.232;29.132;2023-07-31T00:46:01;20.50;81.40
8945;DHT22;4507;40.232;29.132;2023-07-31T00:48:31;20.50;81.80
8945;DHT22;4507;40.232;29.132;2023-07-31T00:51:01;20.50;82.00
8945;DHT22;4507;40.232;29.132;2023-07-31T00:53:30;20.50;82.20
8945;DHT22;4507;40.232;29.132;2023-07-31T00:56:03;20.50;82.30
8945;DHT22;4507;40.232;29.132;2023-07-31T00:58:32;20.50;82.40
8945;DHT22;4507;40.232;29.132;2023-07-31T01:01:01;20.50;82.50
8945;DHT22;4507;40.232;29.132;2023-07-31T01:03:31;20.50;82.60
8945;DHT22;4507;40.232;29.132;2023-07-31T01:06:10;20.50;82.70
8945;DHT22;4507;40.232;29.132;2023-07-31T01:08:48;20.50;82.60
8945;DHT22;4507;40.232;29.132;2023-07-31T01:11:25;20.50;82.60
8945;DHT22;4507;40.232;29.132;2023-07-31T01:13:57;20.50;82.60
8945;DHT22;4507;40.232;29.132;2023-07-31T01:16:26;20.50;82.60
8945;DHT22;4507;40.232;29.132;2023-07-31T01:18:56;20.50;82.60
8945;DHT22;4507;40.232;29.132;2023-07-31T01:21:50;20.50;82.50
8945;DHT22;4507;40.232;29.132;2023-07-31T01:24:25;20.50;82.60
8945;DHT22;4507;40.232;29.132;2023-07-31T01:27:06;20.50;82.50
8945;DHT22;4507;40.232;29.132;2023-07-31T01:29:42;20.50;82.60
8945;DHT22;4507;40.232;29.132;2023-07-31T01:32:15;20.40;82.60
8945;DHT22;4507;40.232;29.132;2023-07-31T01:34:46;20.40;82.70
8945;DHT22;4507;40.232;29.132;2023-07-31T01:37:18;20.40;82.80
8945;DHT22;4507;40.232;29.132;2023-07-31T01:39:47;20.40;82.80
8945;DHT22;4507;40.232;29.132;2023-07-31T01:42:18;20.40;82.70
8945;DHT22;4507;40.232;29.132;2023-07-31T01:44:47;20.30;82.60
8945;DHT22;4507;40.232;29.132;2023-07-31T01:47:16;20.30;82.60
8945;DHT22;4507;40.232;29.132;2023-07-31T01:49:45;20.20;82.50
8945;DHT22;4507;40.232;29.132;2023-07-31T01:52:14;20.10;82.60
8945;DHT22;4507;40.232;29.132;2023-07-31T01:54:43;20.10;82.60
8945;DHT22;4507;40.232;29.132;2023-07-31T01:57:12;20.00;82.80
8945;DHT22;4507;40.232;29.132;2023-07-31T01:59:43;20.00;83.10
8945;DHT22;4507;40.232;29.132;2023-07-31T02:02:13;20.00;83.40
8945;DHT22;4507;40.232;29.132;2023-07-31T02:04:42;19.90;83.50
8945;DHT22;4507;40.232;29.132;2023-07-31T02:07:11;19.90;83.60
8945;DHT22;4507;40.232;29.132;2023-07-31T02:09:55;19.90;83.70
8945;DHT22;4507;40.232;29.132;2023-07-31T02:12:24;19.80;83.80
8945;DHT22;4507;40.232;29.132;2023-07-31T02:14:54;19.80;83.90
8945;DHT22;4507;40.232;29.132;2023-07-31T02:17:24;19.80;84.10
8945;DHT22;4507;40.232;29.132;2023-07-31T02:19:54;19.80;84.20
8945;DHT22;4507;40.232;29.132;2023-07-31T02:22:26;19.80;84.30
8945;DHT22;4507;40.232;29.132;2023-07-31T02:24:56;19.80;84.30
8945;DHT22;4507;40.232;29.132;2023-07-31T02:27:25;19.70;84.20
8945;DHT22;4507;40.232;29.132;2023-07-31T02:29:56;19.70;84.30
8945;DHT22;4507;40.232;29.132;2023-07-31T02:32:27;19.70;84.40
8945;DHT22;4507;40.232;29.132;2023-07-31T02:34:56;19.70;84.40
8945;DHT22;4507;40.232;29.132;2023-07-31T02:37:26;19.70;84.40
8945;DHT22;4507;40.232;29.132;2023-07-31T02:39:56;19.60;84.40
8945;DHT22;4507;40.232;29.132;2023-07-31T02:42:29;19.60;84.60
8945;DHT22;4507;40.232;29.132;2023-07-31T02:44:59;19.50;84.80
8945;DHT22;4507;40.232;29.132;2023-07-31T02:47:29;19.50;85.10
8945;DHT22;4507;40.232;29.132;2023-07-31T02:49:58;19.50;85.30
8945;DHT22;4507;40.232;29.132;2023-07-31T02:52:27;19.50;85.40
8945;DHT22;4507;40.232;29.132;2023-07-31T02:54:56;19.40;85.40
8945;DHT22;4507;40.232;29.132;2023-07-31T02:57:26;19.40;85.60
8945;DHT22;4507;40.232;29.132;2023-07-31T02:59:55;19.40;85.70
8945;DHT22;4507;40.232;29.132;2023-07-31T03:02:25;19.40;85.80
8945;DHT22;4507;40.232;29.132;2023-07-31T03:04:54;19.40;85.90
8945;DHT22;4507;40.232;29.132;2023-07-31T03:07:23;19.40;86.00
8945;DHT22;4507;40.232;29.132;2023-07-31T03:09:53;19.40;86.00
8945;DHT22;4507;40.232;29.132;2023-07-31T03:12:22;19.40;86.00
8945;DHT22;4507;40.232;29.132;2023-07-31T03:14:51;19.40;86.10
8945;DHT22;4507;40.232;29.132;2023-07-31T03:17:20;19.40;86.20
8945;DHT22;4507;40.232;29.132;2023-07-31T03:19:50;19.40;86.20
8945;DHT22;4507;40.232;29.132;2023-07-31T03:22:19;19.30;86.20
8945;DHT22;4507;40.232;29.132;2023-07-31T03:24:48;19.40;86.40
8945;DHT22;4507;40.232;29.132;2023-07-31T03:27:18;19.30;86.40
8945;DHT22;4507;40.232;29.132;2023-07-31T03:29:47;19.30;86.50
8945;DHT22;4507;40.232;29.132;2023-07-31T03:32:19;19.40;86.70
8945;DHT22;4507;40.232;29.132;2023-07-31T03:34:55;19.40;86.80
8945;DHT22;4507;40.232;29.132;2023-07-31T03:37:38;19.40;86.90
8945;DHT22;4507;40.232;29.132;2023-07-31T03:40:08;19.40;87.10
8945;DHT22;4507;40.232;29.132;2023-07-31T03:42:37;19.50;87.10
8945;DHT22;4507;40.232;29.132;2023-07-31T03:45:07;19.50;86.90
8945;DHT22;4507;40.232;29.132;2023-07-31T03:47:37;19.50;86.80
8945;DHT22;4507;40.232;29.132;2023-07-31T03:50:08;19.50;86.90
8945;DHT22;4507;40.232;29.132;2023-07-31T03:52:37;19.60;87.00
8945;DHT22;4507;40.232;29.132;2023-07-31T03:55:06;19.60;87.10
8945;DHT22;4507;40.232;29.132;2023-07-31T03:57:35;19.60;87.10
8945;DHT22;4507;40.232;29.132;2023-07-31T04:00:05;19.70;87.20
8945;DHT22;4507;40.232;29.132;2023-07-31T04:02:41;19.70;87.20
8945;DHT22;4507;40.232;29.132;2023-07-31T04:05:11;19.70;87.20
8945;DHT22;4507;40.232;29.132;2023-07-31T04:07:44;19.80;87.00
8945;DHT22;4507;40.232;29.132;2023-07-31T04:10:13;19.80;86.90
8945;DHT22;4507;40.232;29.132;2023-07-31T04:12:42;19.80;87.00
8945;DHT22;4507;40.232;29.132;2023-07-31T04:15:17;19.80;87.00
8945;DHT22;4507;40.232;29.132;2023-07-31T04:17:46;19.90;87.10
8945;DHT22;4507;40.232;29.132;2023-07-31T04:20:16;19.90;87.10
8945;DHT22;4507;40.232;29.132;2023-07-31T04:22:45;20.00;87.30
8945;DHT22;4507;40.232;29.132;2023-07-31T04:25:14;20.00;87.20
8945;DHT22;4507;40.232;29.132;2023-07-31T04:27:48;20.00;87.10
8945;DHT22;4507;40.232;29.132;2023-07-31T04:30:17;20.10;87.10
8945;DHT22;4507;40.232;29.132;2023-07-31T04:32:45;20.10;87.00
8945;DHT22;4507;40.232;29.132;2023-07-31T04:35:20;20.20;87.00
8945;DHT22;4507;40.232;29.132;2023-07-31T04:37:49;20.20;86.90
8945;DHT22;4507;40.232;29.132;2023-07-31T04:40:18;20.30;86.90
8945;DHT22;4507;40.232;29.132;2023-07-31T04:42:47;20.30;86.90
8945;DHT22;4507;40.232;29.132;2023-07-31T04:45:17;20.40;86.80
8945;DHT22;4507;40.232;29.132;2023-07-31T04:47:46;20.40;86.70
8945;DHT22;4507;40.232;29.132;2023-07-31T04:50:16;20.50;86.80
8945;DHT22;4507;40.232;29.132;2023-07-31T04:52:46;20.50;86.70
8945;DHT22;4507;40.232;29.132;2023-07-31T04:55:15;20.60;86.70
8945;DHT22;4507;40.232;29.132;2023-07-31T04:57:43;20.60;86.50
8945;DHT22;4507;40.232;29.132;2023-07-31T05:00:13;20.60;86.40
8945;DHT22;4507;40.232;29.132;2023-07-31T05:02:42;20.70;86.60
8945;DHT22;4507;40.232;29.132;2023-07-31T05:05:11;20.70;86.50
8945;DHT22;4507;40.232;29.132;2023-07-31T05:07:42;20.80;86.60
8945;DHT22;4507;40.232;29.132;2023-07-31T05:10:11;20.80;86.60
8945;DHT22;4507;40.232;29.132;2023-07-31T05:12:40;20.90;86.80
8945;DHT22;4507;40.232;29.132;2023-07-31T05:15:09;21.00;86.80
8945;DHT22;4507;40.232;29.132;2023-07-31T05:17:38;21.10;86.90
8945;DHT22;4507;40.232;29.132;2023-07-31T05:20:08;21.10;86.40
8945;DHT22;4507;40.232;29.132;2023-07-31T05:22:38;21.20;86.10
8945;DHT22;4507;40.232;29.132;2023-07-31T05:25:12;21.20;85.60
8945;DHT22;4507;40.232;29.132;2023-07-31T05:28:09;21.30;84.80
8945;DHT22;4507;40.232;29.132;2023-07-31T05:30:45;21.40;84.50
8945;DHT22;4507;40.232;29.132;2023-07-31T05:33:14;21.40;83.90
8945;DHT22;4507;40.232;29.132;2023-07-31T05:35:43;21.50;83.60
8945;DHT22;4507;40.232;29.132;2023-07-31T05:38:12;21.50;83.30
8945;DHT22;4507;40.232;29.132;2023-07-31T05:40:44;21.60;83.10
8945;DHT22;4507;40.232;29.132;2023-07-31T05:43:13;21.70;82.80
8945;DHT22;4507;40.232;29.132;2023-07-31T05:45:42;21.70;82.40
8945;DHT22;4507;40.232;29.132;2023-07-31T05:48:11;21.80;82.20
8945;DHT22;4507;40.232;29.132;2023-07-31T05:50:40;21.90;82.00
8945;DHT22;4507;40.232;29.132;2023-07-31T05:53:10;21.90;81.60
8945;DHT22;4507;40.232;29.132;2023-07-31T05:55:39;22.00;81.30
8945;DHT22;4507;40.232;29.132;2023-07-31T05:58:09;22.10;81.20
8945;DHT22;4507;40.232;29.132;2023-07-31T06:00:38;22.20;80.60
8945;DHT22;4507;40.232;29.132;2023-07-31T06:03:08;22.30;80.40
8945;DHT22;4507;40.232;29.132;2023-07-31T06:05:37;22.30;80.20
8945;DHT22;4507;40.232;29.132;2023-07-31T06:08:06;22.40;80.00
8945;DHT22;4507;40.232;29.132;2023-07-31T06:10:35;22.50;79.60
8945;DHT22;4507;40.232;29.132;2023-07-31T06:13:04;22.60;79.30
8945;DHT22;4507;40.232;29.132;2023-07-31T06:15:35;22.70;79.00
8945;DHT22;4507;40.232;29.132;2023-07-31T06:18:04;22.80;78.70
8945;DHT22;4507;40.232;29.132;2023-07-31T06:20:35;22.90;78.60
8945;DHT22;4507;40.232;29.132;2023-07-31T06:23:04;23.00;78.30
8945;DHT22;4507;40.232;29.132;2023-07-31T06:25:33;23.10;77.50
8945;DHT22;4507;40.232;29.132;2023-07-31T06:28:02;23.20;77.00
8945;DHT22;4507;40.232;29.132;2023-07-31T06:30:31;23.30;76.90
8945;DHT22;4507;40.232;29.132;2023-07-31T06:33:03;23.30;76.20
8945;DHT22;4507;40.232;29.132;2023-07-31T06:35:32;23.50;76.10
8945;DHT22;4507;40.232;29.132;2023-07-31T06:38:01;23.50;75.90
8945;DHT22;4507;40.232;29.132;2023-07-31T06:40:30;23.70;75.80
8945;DHT22;4507;40.232;29.132;2023-07-31T06:42:59;23.70;75.60
8945;DHT22;4507;40.232;29.132;2023-07-31T06:45:37;23.80;75.70
8945;DHT22;4507;40.232;29.132;2023-07-31T06:48:08;23.90;75.70
8945;DHT22;4507;40.232;29.132;2023-07-31T06:50:38;24.00;75.20
8945;DHT22;4507;40.232;29.132;2023-07-31T06:53:07;24.20;75.10
8945;DHT22;4507;40.232;29.132;2023-07-31T06:55:38;24.30;75.10
8945;DHT22;4507;40.232;29.132;2023-07-31T06:58:07;24.40;74.70
8945;DHT22;4507;40.232;29.132;2023-07-31T07:00:36;24.50;74.30
8945;DHT22;4507;40.232;29.132;2023-07-31T07:03:05;24.60;73.80
8945;DHT22;4507;40.232;29.132;2023-07-31T07:05:36;24.70;73.20
8945;DHT22;4507;40.232;29.132;2023-07-31T07:08:05;24.80;72.90
8945;DHT22;4507;40.232;29.132;2023-07-31T07:10:37;24.90;72.10
8945;DHT22;4507;40.232;29.132;2023-07-31T07:13:06;25.00;71.70
8945;DHT22;4507;40.232;29.132;2023-07-31T07:15:35;25.00;71.30
8945;DHT22;4507;40.232;29.132;2023-07-31T07:18:04;25.10;70.90
8945;DHT22;4507;40.232;29.132;2023-07-31T07:20:41;25.10;70.60
8945;DHT22;4507;40.232;29.132;2023-07-31T07:23:14;25.20;70.50
8945;DHT22;4507;40.232;29.132;2023-07-31T07:25:44;25.20;70.10
8945;DHT22;4507;40.232;29.132;2023-07-31T07:28:14;25.30;69.90
8945;DHT22;4507;40.232;29.132;2023-07-31T07:30:43;25.40;69.40
8945;DHT22;4507;40.232;29.132;2023-07-31T07:33:12;25.40;69.00
8945;DHT22;4507;40.232;29.132;2023-07-31T07:35:42;25.50;68.90
8945;DHT22;4507;40.232;29.132;2023-07-31T07:38:11;25.60;68.80
8945;DHT22;4507;40.232;29.132;2023-07-31T07:40:40;25.60;68.80
8945;DHT22;4507;40.232;29.132;2023-07-31T07:43:09;25.70;68.60
8945;DHT22;4507;40.232;29.132;2023-07-31T07:45:38;25.80;68.60
8945;DHT22;4507;40.232;29.132;2023-07-31T07:48:07;26.00;68.20
8945;DHT22;4507;40.232;29.132;2023-07-31T07:50:39;26.00;67.70
8945;DHT22;4507;40.232;29.132;2023-07-31T07:53:10;26.20;67.70
8945;DHT22;4507;40.232;29.132;2023-07-31T07:55:39;26.30;67.30
8945;DHT22;4507;40.232;29.132;2023-07-31T07:58:08;26.20;67.10
8945;DHT22;4507;40.232;29.132;2023-07-31T08:00:37;26.50;66.60
8945;DHT22;4507;40.232;29.132;2023-07-31T08:03:11;26.50;66.10
8945;DHT22;4507;40.232;29.132;2023-07-31T08:05:42;26.60;65.90
8945;DHT22;4507;40.232;29.132;2023-07-31T08:08:16;26.70;65.90
8945;DHT22;4507;40.232;29.132;2023-07-31T08:10:45;26.80;66.10
8945;DHT22;4507;40.232;29.132;2023-07-31T08:13:14;26.90;65.40
8945;DHT22;4507;40.232;29.132;2023-07-31T08:15:43;27.10;65.30
8945;DHT22;4507;40.232;29.132;2023-07-31T08:18:12;27.10;65.10
8945;DHT22;4507;40.232;29.132;2023-07-31T08:20:47;27.30;64.70
8945;DHT22;4507;40.232;29.132;2023-07-31T08:23:18;27.40;64.30
8945;DHT22;4507;40.232;29.132;2023-07-31T08:25:47;27.50;63.50
8945;DHT22;4507;40.232;29.132;2023-07-31T08:28:18;27.60;62.20
8945;DHT22;4507;40.232;29.132;2023-07-31T08:30:47;27.60;62.10
8945;DHT22;4507;40.232;29.132;2023-07-31T08:33:18;27.70;62.10
8945;DHT22;4507;40.232;29.132;2023-07-31T08:35:47;27.80;62.20
8945;DHT22;4507;40.232;29.132;2023-07-31T08:38:17;27.90;62.00
8945;DHT22;4507;40.232;29.132;2023-07-31T08:40:47;28.00;61.30
8945;DHT22;4507;40.232;29.132;2023-07-31T08:43:19;28.10;61.30
8945;DHT22;4507;40.232;29.132;2023-07-31T08:45:51;28.20;61.20
8945;DHT22;4507;40.232;29.132;2023-07-31T08:48:21;28.20;60.70
8945;DHT22;4507;40.232;29.132;2023-07-31T08:50:52;28.30;60.30
8945;DHT22;4507;40.232;29.132;2023-07-31T08:53:23;28.40;60.30
8945;DHT22;4507;40.232;29.132;2023-07-31T08:55:53;28.40;59.90
8945;DHT22;4507;40.232;29.132;2023-07-31T08:58:24;28.50;59.70
8945;DHT22;4507;40.232;29.132;2023-07-31T09:00:55;28.60;58.90
8945;DHT22;4507;40.232;29.132;2023-07-31T09:03:25;28.70;58.30
8945;DHT22;4507;40.232;29.132;2023-07-31T09:05:57;28.80;58.10
8945;DHT22;4507;40.232;29.132;2023-07-31T09:08:30;29.00;57.60
8945;DHT22;4507;40.232;29.132;2023-07-31T09:11:00;29.10;57.70
8945;DHT22;4507;40.232;29.132;2023-07-31T09:13:31;29.20;57.10
8945;DHT22;4507;40.232;29.132;2023-07-31T09:16:00;29.30;56.90
8945;DHT22;4507;40.232;29.132;2023-07-31T09:18:29;29.40;57.40
8945;DHT22;4507;40.232;29.132;2023-07-31T09:21:02;29.50;57.10
8945;DHT22;4507;40.232;29.132;2023-07-31T09:23:44;29.70;56.70
8945;DHT22;4507;40.232;29.132;2023-07-31T09:26:29;29.80;56.50
8945;DHT22;4507;40.232;29.132;2023-07-31T09:28:59;29.90;56.10
8945;DHT22;4507;40.232;29.132;2023-07-31T09:31:49;30.10;55.60
8945;DHT22;4507;40.232;29.132;2023-07-31T09:34:19;30.10;55.30
8945;DHT22;4507;40.232;29.132;2023-07-31T09:36:51;30.30;55.30
8945;DHT22;4507;40.232;29.132;2023-07-31T09:39:22;30.40;55.20
8945;DHT22;4507;40.232;29.132;2023-07-31T09:41:54;30.40;55.50
8945;DHT22;4507;40.232;29.132;2023-07-31T09:44:37;30.50;55.00
8945;DHT22;4507;40.232;29.132;2023-07-31T09:47:21;30.60;54.30
8945;DHT22;4507;40.232;29.132;2023-07-31T09:49:53;30.60;54.40
8945;DHT22;4507;40.232;29.132;2023-07-31T09:52:22;30.70;54.50
8945;DHT22;4507;40.232;29.132;2023-07-31T09:55:15;30.90;54.40
8945;DHT22;4507;40.232;29.132;2023-07-31T09:57:46;31.00;53.80
8945;DHT22;4507;40.232;29.132;2023-07-31T10:00:17;31.10;53.30
8945;DHT22;4507;40.232;29.132;2023-07-31T10:02:47;31.20;51.70
8945;DHT22;4507;40.232;29.132;2023-07-31T10:05:16;31.20;51.20
8945;DHT22;4507;40.232;29.132;2023-07-31T10:07:51;31.30;51.30
8945;DHT22;4507;40.232;29.132;2023-07-31T10:10:23;31.40;50.00
8945;DHT22;4507;40.232;29.132;2023-07-31T10:12:53;31.40;50.00
8945;DHT22;4507;40.232;29.132;2023-07-31T10:19:31;31.60;50.50
8945;DHT22;4507;40.232;29.132;2023-07-31T10:22:05;31.70;50.60
8945;DHT22;4507;40.232;29.132;2023-07-31T10:24:35;31.80;50.60
8945;DHT22;4507;40.232;29.132;2023-07-31T10:27:07;31.80;50.20
8945;DHT22;4507;40.232;29.132;2023-07-31T10:29:37;31.90;50.20
8945;DHT22;4507;40.232;29.132;2023-07-31T10:32:11;32.00;49.90
8945;DHT22;4507;40.232;29.132;2023-07-31T10:34:41;32.10;49.90
8945;DHT22;4507;40.232;29.132;2023-07-31T10:37:20;32.30;49.90
8945;DHT22;4507;40.232;29.132;2023-07-31T10:40:00;32.40;49.10
8945;DHT22;4507;40.232;29.132;2023-07-31T10:42:33;32.50;48.50
8945;DHT22;4507;40.232;29.132;2023-07-31T10:45:04;32.50;48.20
8945;DHT22;4507;40.232;29.132;2023-07-31T10:47:37;32.50;48.70
8945;DHT22;4507;40.232;29.132;2023-07-31T10:50:15;32.60;48.30
8945;DHT22;4507;40.232;29.132;2023-07-31T10:52:47;32.70;48.10
8945;DHT22;4507;40.232;29.132;2023-07-31T10:55:27;32.90;47.50
8945;DHT22;4507;40.232;29.132;2023-07-31T10:58:04;32.90;47.00
8945;DHT22;4507;40.232;29.132;2023-07-31T11:00:56;32.90;46.50
8945;DHT22;4507;40.232;29.132;2023-07-31T11:03:27;33.00;46.10
8945;DHT22;4507;40.232;29.132;2023-07-31T11:06:09;33.00;46.10
8945;DHT22;4507;40.232;29.132;2023-07-31T11:08:43;33.10;46.60
8945;DHT22;4507;40.232;29.132;2023-07-31T11:11:13;33.10;46.60
8945;DHT22;4507;40.232;29.132;2023-07-31T11:14:03;33.30;46.50
8945;DHT22;4507;40.232;29.132;2023-07-31T11:16:32;33.40;46.00
8945;DHT22;4507;40.232;29.132;2023-07-31T11:19:01;33.40;45.40
8945;DHT22;4507;40.232;29.132;2023-07-31T11:21:30;33.50;45.30
8945;DHT22;4507;40.232;29.132;2023-07-31T11:23:58;33.70;45.20
8945;DHT22;4507;40.232;29.132;2023-07-31T11:26:27;33.70;44.90
8945;DHT22;4507;40.232;29.132;2023-07-31T11:28:56;33.80;44.70
8945;DHT22;4507;40.232;29.132;2023-07-31T11:31:26;33.90;45.00
8945;DHT22;4507;40.232;29.132;2023-07-31T11:34:14;33.90;44.30
8945;DHT22;4507;40.232;29.132;2023-07-31T11:36:53;34.10;44.30
8945;DHT22;4507;40.232;29.132;2023-07-31T11:39:22;34.30;43.90
8945;DHT22;4507;40.232;29.132;2023-07-31T11:41:51;34.40;44.30
8945;DHT22;4507;40.232;29.132;2023-07-31T11:44:20;34.60;44.00
8945;DHT22;4507;40.232;29.132;2023-07-31T11:46:58;34.70;43.20
8945;DHT22;4507;40.232;29.132;2023-07-31T11:49:29;34.80;42.80
8945;DHT22;4507;40.232;29.132;2023-07-31T11:52:21;34.90;43.10
8945;DHT22;4507;40.232;29.132;2023-07-31T11:54:51;35.10;42.90
8945;DHT22;4507;40.232;29.132;2023-07-31T11:57:20;35.30;43.30
8945;DHT22;4507;40.232;29.132;2023-07-31T11:59:50;35.40;43.00
8945;DHT22;4507;40.232;29.132;2023-07-31T12:02:21;35.50;41.90
8945;DHT22;4507;40.232;29.132;2023-07-31T12:04:50;35.60;41.40
8945;DHT22;4507;40.232;29.132;2023-07-31T12:07:19;35.70;41.60
8945;DHT22;4507;40.232;29.132;2023-07-31T12:09:53;35.70;41.40
8945;DHT22;4507;40.232;29.132;2023-07-31T12:12:23;35.60;41.70
8945;DHT22;4507;40.232;29.132;2023-07-31T12:14:52;35.50;42.50
8945;DHT22;4507;40.232;29.132;2023-07-31T12:17:23;35.50;41.80
8945;DHT22;4507;40.232;29.132;2023-07-31T12:19:53;35.50;42.30
8945;DHT22;4507;40.232;29.132;2023-07-31T12:22:22;35.40;41.80
8945;DHT22;4507;40.232;29.132;2023-07-31T12:24:54;35.50;41.60
8945;DHT22;4507;40.232;29.132;2023-07-31T12:27:23;35.40;41.60
8945;DHT22;4507;40.232;29.132;2023-07-31T12:29:54;35.40;41.50
8945;DHT22;4507;40.232;29.132;2023-07-31T12:32:25;35.40;41.60
8945;DHT22;4507;40.232;29.132;2023-07-31T12:34:59;35.20;41.60
8945;DHT22;4507;40.232;29.132;2023-07-31T12:37:29;35.30;41.80
8945;DHT22;4507;40.232;29.132;2023-07-31T12:39:59;35.10;42.10
8945;DHT22;4507;40.232;29.132;2023-07-31T12:42:35;34.90;42.30
8945;DHT22;4507;40.232;29.132;2023-07-31T12:45:05;34.90;43.20
8945;DHT22;4507;40.232;29.132;2023-07-31T12:47:35;34.80;43.30
8945;DHT22;4507;40.232;29.132;2023-07-31T12:50:06;34.70;43.30
8945;DHT22;4507;40.232;29.132;2023-07-31T12:52:35;34.60;43.60
8945;DHT22;4507;40.232;29.132;2023-07-31T12:55:05;34.40;43.90
8945;DHT22;4507;40.232;29.132;2023-07-31T12:57:34;34.40;43.90
8945;DHT22;4507;40.232;29.132;2023-07-31T13:00:03;34.30;44.00
8945;DHT22;4507;40.232;29.132;2023-07-31T13:02:32;34.20;44.30
8945;DHT22;4507;40.232;29.132;2023-07-31T13:05:03;34.10;44.70
8945;DHT22;4507;40.232;29.132;2023-07-31T13:07:35;34.00;45.10
8945;DHT22;4507;40.232;29.132;2023-07-31T13:10:12;33.90;45.00
8945;DHT22;4507;40.232;29.132;2023-07-31T13:12:41;33.90;45.40
8945;DHT22;4507;40.232;29.132;2023-07-31T13:15:10;33.80;45.30
8945;DHT22;4507;40.232;29.132;2023-07-31T13:17:39;33.70;45.30
8945;DHT22;4507;40.232;29.132;2023-07-31T13:20:10;33.60;45.60
8945;DHT22;4507;40.232;29.132;2023-07-31T13:22:39;33.50;45.60
8945;DHT22;4507;40.232;29.132;2023-07-31T13:25:13;33.30;45.60
8945;DHT22;4507;40.232;29.132;2023-07-31T13:27:42;33.00;45.80
8945;DHT22;4507;40.232;29.132;2023-07-31T13:30:16;33.00;46.20
8945;DHT22;4507;40.232;29.132;2023-07-31T13:32:45;32.90;46.50
8945;DHT22;4507;40.232;29.132;2023-07-31T13:35:15;32.80;47.00
8945;DHT22;4507;40.232;29.132;2023-07-31T13:37:44;32.70;47.50
8945;DHT22;4507;40.232;29.132;2023-07-31T13:40:13;32.70;47.70
8945;DHT22;4507;40.232;29.132;2023-07-31T13:42:42;32.60;47.90
8945;DHT22;4507;40.232;29.132;2023-07-31T13:45:11;32.50;48.40
8945;DHT22;4507;40.232;29.132;2023-07-31T13:47:40;32.50;48.30
8945;DHT22;4507;40.232;29.132;2023-07-31T13:50:09;32.40;48.40
8945;DHT22;4507;40.232;29.132;2023-07-31T13:52:39;32.30;48.20
8945;DHT22;4507;40.232;29.132;2023-07-31T13:55:09;32.20;48.50
8945;DHT22;4507;40.232;29.132;2023-07-31T13:57:38;32.20;48.80
8945;DHT22;4507;40.232;29.132;2023-07-31T14:00:07;32.20;49.10
8945;DHT22;4507;40.232;29.132;2023-07-31T14:02:37;32.10;49.30
8945;DHT22;4507;40.232;29.132;2023-07-31T14:05:06;32.00;49.20
8945;DHT22;4507;40.232;29.132;2023-07-31T14:07:37;32.00;49.20
8945;DHT22;4507;40.232;29.132;2023-07-31T14:10:08;31.90;49.50
8945;DHT22;4507;40.232;29.132;2023-07-31T14:12:38;31.90;50.00
8945;DHT22;4507;40.232;29.132;2023-07-31T14:15:10;31.80;50.00
8945;DHT22;4507;40.232;29.132;2023-07-31T14:17:39;31.80;50.30
8945;DHT22;4507;40.232;29.132;2023-07-31T14:20:12;31.80;50.50
8945;DHT22;4507;40.232;29.132;2023-07-31T14:22:41;31.80;50.40
8945;DHT22;4507;40.232;29.132;2023-07-31T14:25:25;31.80;50.30
8945;DHT22;4507;40.232;29.132;2023-07-31T14:27:55;31.80;51.00
8945;DHT22;4507;40.232;29.132;2023-07-31T14:30:24;31.80;50.40
8945;DHT22;4507;40.232;29.132;2023-07-31T14:32:52;31.70;50.70
8945;DHT22;4507;40.232;29.132;2023-07-31T14:35:22;31.70;51.10
8945;DHT22;4507;40.232;29.132;2023-07-31T14:37:51;31.70;51.20
8945;DHT22;4507;40.232;29.132;2023-07-31T14:40:20;31.80;50.90
8945;DHT22;4507;40.232;29.132;2023-07-31T14:42:50;31.80;51.10
8945;DHT22;4507;40.232;29.132;2023-07-31T14:45:19;31.80;51.00
8945;DHT22;4507;40.232;29.132;2023-07-31T14:47:48;31.80;51.30
8945;DHT22;4507;40.232;29.132;2023-07-31T14:50:21;31.70;51.10
8945;DHT22;4507;40.232;29.132;2023-07-31T14:52:52;31.70;51.50
8945;DHT22;4507;40.232;29.132;2023-07-31T14:55:21;31.60;50.90
8945;DHT22;4507;40.232;29.132;2023-07-31T14:57:51;31.60;51.20
8945;DHT22;4507;40.232;29.132;2023-07-31T15:00:20;31.60;51.20
8945;DHT22;4507;40.232;29.132;2023-07-31T15:02:51;31.50;51.20
8945;DHT22;4507;40.232;29.132;2023-07-31T15:05:20;31.50;51.10
8945;DHT22;4507;40.232;29.132;2023-07-31T15:07:49;31.50;51.30
8945;DHT22;4507;40.232;29.132;2023-07-31T15:10:19;31.40;51.30
8945;DHT22;4507;40.232;29.132;2023-07-31T15:12:49;31.40;51.20
8945;DHT22;4507;40.232;29.132;2023-07-31T15:15:19;31.30;51.20
8945;DHT22;4507;40.232;29.132;2023-07-31T15:17:48;31.30;51.90
8945;DHT22;4507;40.232;29.132;2023-07-31T15:20:17;31.30;51.30
8945;DHT22;4507;40.232;29.132;2023-07-31T15:22:46;31.20;51.40
8945;DHT22;4507;40.232;29.132;2023-07-31T15:25:15;31.20;51.30
8945;DHT22;4507;40.232;29.132;2023-07-31T15:27:44;31.10;51.30
8945;DHT22;4507;40.232;29.132;2023-07-31T15:30:13;31.10;51.40
8945;DHT22;4507;40.232;29.132;2023-07-31T15:32:44;31.00;51.70
8945;DHT22;4507;40.232;29.132;2023-07-31T15:35:16;31.00;51.60
8945;DHT22;4507;40.232;29.132;2023-07-31T15:37:48;30.90;51.30
8945;DHT22;4507;40.232;29.132;2023-07-31T15:40:17;30.90;51.70
8945;DHT22;4507;40.232;29.132;2023-07-31T15:42:46;30.90;51.80
8945;DHT22;4507;40.232;29.132;2023-07-31T15:45:15;30.80;51.90
8945;DHT22;4507;40.232;29.132;2023-07-31T15:47:46;30.70;52.20
8945;DHT22;4507;40.232;29.132;2023-07-31T15:50:15;30.60;52.30
8945;DHT22;4507;40.232;29.132;2023-07-31T15:52:44;30.50;52.50
8945;DHT22;4507;40.232;29.132;2023-07-31T15:55:12;30.40;52.70
8945;DHT22;4507;40.232;29.132;2023-07-31T15:57:41;30.40;53.00
8945;DHT22;4507;40.232;29.132;2023-07-31T16:00:14;30.20;53.00
8945;DHT22;4507;40.232;29.132;2023-07-31T16:02:50;30.10;53.30
8945;DHT22;4507;40.232;29.132;2023-07-31T16:05:19;30.10;53.50
8945;DHT22;4507;40.232;29.132;2023-07-31T16:07:48;30.00;53.80
8945;DHT22;4507;40.232;29.132;2023-07-31T16:10:17;29.90;53.90
8945;DHT22;4507;40.232;29.132;2023-07-31T16:12:46;29.80;54.80
8945;DHT22;4507;40.232;29.132;2023-07-31T16:15:16;29.80;54.50
8945;DHT22;4507;40.232;29.132;2023-07-31T16:17:45;29.70;54.90